Time;durP1;ratioP1;P1;durP2;ratioP2;P2;SDS_P1;SDS_P2;PMS_P1;PMS_P2;Temp;Humidity;BMP_temperature;BMP_pressure;BME280_temperature;BME280_humidity;BME280_pressure;Samples;Min_cycle;Max_cycle;Signal;HPM_P1;HPM_P2
2021/04/03 00:04:22;;;;;;;18.70;11.45;;;;;;;4.37;70.35;100933.03;20987950;28;20048;-71
2021/04/03 00:14:23;;;;;;;19.65;11.43;;;;;;;4.26;70.99;100938.47;20986766;28;20045;-69
2021/04/03 00:24:24;;;;;;;22.25;11.80;;;;;;;4.37;71.13;100950.38;20987645;28;20434;-70
2021/04/03 00:34:25;;;;;;;22.60;10.95;;;;;;;4.46;70.99;100948.44;20985126;28;20044;-71
2021/04/03 00:44:25;;;;;;;19.10;10.75;;;;;;;4.61;69.57;100944.66;20985132;28;20047;-70
2021/04/03 00:54:26;;;;;;;19.60;9.38;;;;;;;4.80;68.45;100927.81;20983940;28;20639;-70
2021/04/03 01:04:27;;;;;;;22.08;9.60;;;;;;;4.88;67.09;100925.91;20981874;28;20106;-70
2021/04/03 01:14:58;;;;;;;17.65;8.68;;;;;;;4.65;68.55;100902.22;20982983;28;20127;-71
2021/04/03 01:25:28;;;;;;;21.70;9.95;;;;;;;4.28;70.43;100918.56;20981753;28;20056;-71
2021/04/03 01:35:35;;;;;;;17.10;9.73;;;;;;;4.03;72.40;100917.31;20980708;28;20051;-70
2021/04/03 01:45:39;;;;;;;20.92;9.70;;;;;;;4.04;73.34;100913.00;20980942;28;20060;-71
2021/04/03 01:55:41;;;;;;;19.55;10.45;;;;;;;3.87;73.65;100884.84;20980914;28;20045;-71
2021/04/03 02:05:47;;;;;;;17.92;9.50;;;;;;;3.52;74.74;100884.63;20979050;28;20049;-70
2021/04/03 02:15:49;;;;;;;19.83;9.70;;;;;;;3.23;74.98;100886.00;20992505;28;20097;-71
2021/04/03 02:25:50;;;;;;;21.55;10.60;;;;;;;3.16;76.09;100893.84;20996223;28;20041;-71
2021/04/03 02:35:51;;;;;;;19.08;9.70;;;;;;;3.19;75.74;100892.09;20994211;28;20048;-71
2021/04/03 02:46:11;;;;;;;20.45;9.05;;;;;;;3.39;75.79;100902.97;20993503;28;20048;-70
2021/04/03 02:56:14;;;;;;;17.30;9.35;;;;;;;3.51;75.00;100906.19;20994047;28;20306;-71
2021/04/03 03:06:15;;;;;;;18.67;9.02;;;;;;;3.68;75.71;100904.19;20974383;28;20040;-71
2021/04/03 03:16:21;;;;;;;18.52;8.93;;;;;;;3.76;75.26;100908.31;20992133;28;20040;-71
2021/04/03 03:26:23;;;;;;;17.40;9.02;;;;;;;3.78;74.56;100895.38;20990870;28;20140;-71
2021/04/03 03:36:27;;;;;;;20.55;9.02;;;;;;;3.69;75.03;100901.56;21005628;28;20412;-71
2021/04/03 03:46:28;;;;;;;18.65;8.75;;;;;;;3.66;75.76;100895.56;20990634;28;20527;-71
2021/04/03 03:56:29;;;;;;;20.48;9.45;;;;;;;3.91;74.01;100898.59;20989093;28;20045;-71
2021/04/03 04:06:29;;;;;;;17.58;8.90;;;;;;;3.87;74.03;100901.22;20987548;28;20075;-71
2021/04/03 04:16:30;;;;;;;17.55;8.88;;;;;;;3.90;74.09;100908.09;20987308;28;20053;-71
2021/04/03 04:26:31;;;;;;;16.60;8.32;;;;;;;4.06;73.69;100913.84;20987121;28;20079;-71
2021/04/03 04:36:32;;;;;;;14.90;7.72;;;;;;;4.10;71.68;100924.09;20984020;28;20526;-70
2021/04/03 04:46:33;;;;;;;15.40;7.53;;;;;;;3.94;73.98;100940.81;20984965;28;20098;-70
2021/04/03 04:56:34;;;;;;;15.63;7.32;;;;;;;4.08;73.44;100941.41;20985098;28;20040;-70
2021/04/03 05:06:35;;;;;;;14.40;6.38;;;;;;;4.29;72.41;100943.59;20982776;28;20047;-70
2021/04/03 05:16:37;;;;;;;13.07;6.15;;;;;;;4.41;72.11;100949.41;20982584;28;20531;-71
2021/04/03 05:26:38;;;;;;;15.05;5.72;;;;;;;4.64;70.75;100973.09;20982357;28;20460;-71
2021/04/03 05:36:39;;;;;;;14.45;5.70;;;;;;;4.97;69.45;100987.97;20980514;28;20511;-71
2021/04/03 05:46:42;;;;;;;11.20;5.47;;;;;;;5.37;68.58;100987.06;20963201;28;20492;-71
2021/04/03 05:56:44;;;;;;;11.63;5.55;;;;;;;5.40;68.07;101002.53;20979523;28;20040;-71
2021/04/03 06:06:48;;;;;;;14.07;5.65;;;;;;;5.45;67.59;100998.09;20979414;28;20044;-70
2021/04/03 06:16:50;;;;;;;12.25;5.70;;;;;;;5.75;67.22;100999.09;20979507;28;20083;-70
2021/04/03 06:26:59;;;;;;;14.75;6.25;;;;;;;5.79;67.30;101003.34;20980012;28;20466;-70
2021/04/03 06:37:01;;;;;;;17.25;6.53;;;;;;;5.82;66.54;101013.66;20996877;28;20079;-71
2021/04/03 06:47:02;;;;;;;12.43;5.78;;;;;;;5.88;66.20;101006.59;20982302;28;20101;-71
2021/04/03 06:57:04;;;;;;;16.50;6.40;;;;;;;6.08;65.61;101024.28;20973136;28;20102;-70
2021/04/03 07:07:07;;;;;;;14.20;6.05;;;;;;;6.04;66.35;101027.00;21001244;28;20090;-69
2021/04/03 07:17:09;;;;;;;17.38;6.43;;;;;;;6.34;64.43;101042.66;21029237;28;20127;-70
2021/04/03 07:27:11;;;;;;;12.07;5.80;;;;;;;7.03;62.08;101032.88;20981564;28;20105;-71
2021/04/03 07:37:30;;;;;;;15.15;7.40;;;;;;;7.13;61.02;101045.59;20998370;28;20106;-71
2021/04/03 07:47:46;;;;;;;18.67;7.43;;;;;;;6.86;61.24;101065.44;21003788;28;20049;-70
2021/04/03 07:57:47;;;;;;;19.02;7.72;;;;;;;6.81;62.16;101074.28;21026292;28;20036;-71
2021/04/03 08:07:52;;;;;;;15.32;7.40;;;;;;;6.84;62.56;101080.28;20955871;28;20048;-70
2021/04/03 08:17:54;;;;;;;18.70;5.93;;;;;;;7.74;58.31;101086.22;20927257;28;20416;-70
2021/04/03 08:27:57;;;;;;;11.63;5.03;;;;;;;7.85;57.40;101098.94;20909329;28;20095;-72
2021/04/03 08:38:08;;;;;;;10.93;5.28;;;;;;;7.93;56.51;101099.53;20923120;28;20037;-72
2021/04/03 08:48:10;;;;;;;11.00;4.80;;;;;;;7.99;54.84;101112.38;20991363;28;20669;-72
2021/04/03 08:58:11;;;;;;;9.80;4.57;;;;;;;7.96;55.55;101130.72;20989883;28;20048;-72
2021/04/03 09:08:23;;;;;;;14.90;4.18;;;;;;;7.92;53.65;101131.72;20988305;28;20048;-72
2021/04/03 09:18:26;;;;;;;9.93;3.88;;;;;;;8.31;53.07;101158.31;20951523;28;20075;-72
2021/04/03 09:28:41;;;;;;;8.20;3.60;;;;;;;8.36;51.45;101156.41;20987881;28;20052;-72
2021/04/03 09:38:43;;;;;;;9.53;3.50;;;;;;;8.55;50.77;101159.22;20968417;28;20069;-72
2021/04/03 09:48:44;;;;;;;9.52;3.28;;;;;;;9.16;47.76;101157.09;20986340;28;20099;-72
2021/04/03 09:58:45;;;;;;;11.02;2.88;;;;;;;9.44;49.10;101152.56;20987160;28;20585;-71
2021/04/03 10:08:46;;;;;;;9.30;2.90;;;;;;;9.36;47.49;101146.75;20985009;28;20090;-71
2021/04/03 10:18:47;;;;;;;7.95;2.95;;;;;;;9.11;47.86;101153.78;20986952;28;20044;-71
2021/04/03 10:28:49;;;;;;;10.60;3.22;;;;;;;8.95;47.60;101153.47;20973227;28;20045;-71
2021/04/03 10:38:50;;;;;;;10.13;2.72;;;;;;;8.66;47.47;101149.28;20979867;28;20094;-73
2021/04/03 10:48:51;;;;;;;6.70;2.92;;;;;;;9.14;46.48;101136.28;21020581;28;20044;-72
2021/04/03 10:58:53;;;;;;;9.93;2.90;;;;;;;9.36;44.80;101134.53;21019666;28;20052;-72
2021/04/03 11:08:54;;;;;;;7.40;2.90;;;;;;;9.63;43.56;101132.66;21010578;28;20037;-72
2021/04/03 11:18:55;;;;;;;11.60;3.20;;;;;;;9.70;44.09;101133.28;20998248;28;20055;-73
2021/04/03 11:28:55;;;;;;;7.90;2.75;;;;;;;10.11;43.20;101118.53;20997614;28;20048;-73
2021/04/03 11:38:56;;;;;;;8.93;3.17;;;;;;;10.34;42.84;101120.25;20995855;28;20037;-73
2021/04/03 11:48:57;;;;;;;10.10;2.80;;;;;;;9.97;42.31;101120.84;20995917;28;20048;-73
2021/04/03 11:58:58;;;;;;;9.85;3.28;;;;;;;10.73;42.17;101105.44;20994522;28;20051;-73
2021/04/03 12:08:59;;;;;;;6.72;2.33;;;;;;;10.58;40.78;101104.34;20993634;28;20040;-72
2021/04/03 12:19:00;;;;;;;7.53;2.30;;;;;;;10.82;39.21;101091.94;20993361;28;20048;-72
2021/04/03 12:29:01;;;;;;;9.60;2.75;;;;;;;10.41;41.05;101082.44;20975039;28;20063;-72
2021/04/03 12:39:03;;;;;;;7.28;2.35;;;;;;;11.07;39.37;101058.50;20990420;28;20049;-72
2021/04/03 12:49:04;;;;;;;9.18;2.13;;;;;;;11.05;38.98;101052.50;20988371;28;20049;-72
2021/04/03 12:59:05;;;;;;;9.10;2.05;;;;;;;11.11;38.67;101056.63;20989404;28;20041;-72
2021/04/03 13:09:06;;;;;;;7.07;2.22;;;;;;;11.04;39.65;101031.59;20987985;28;20554;-72
2021/04/03 13:19:07;;;;;;;7.22;1.80;;;;;;;11.85;37.85;101031.22;20988389;28;20139;-71
2021/04/03 13:29:09;;;;;;;7.88;1.90;;;;;;;11.69;36.21;101028.47;20988508;28;20044;-72
2021/04/03 13:39:12;;;;;;;6.03;1.55;;;;;;;12.16;33.87;101014.81;20986166;28;20040;-71
2021/04/03 13:49:13;;;;;;;5.82;2.10;;;;;;;11.78;34.38;101014.97;20986084;28;20382;-71
2021/04/03 13:59:14;;;;;;;5.38;1.45;;;;;;;12.00;35.07;100996.38;20986601;28;20048;-70
2021/04/03 14:09:15;;;;;;;3.95;1.40;;;;;;;11.82;34.18;100992.06;20984665;28;20040;-71
2021/04/03 14:19:16;;;;;;;6.78;1.25;;;;;;;12.06;32.92;100987.34;20984537;28;20052;-71
2021/04/03 14:29:17;;;;;;;8.43;1.80;;;;;;;11.76;33.37;100989.72;20968583;28;20072;-71
2021/04/03 14:39:20;;;;;;;5.97;2.10;;;;;;;11.93;32.80;100968.75;20983834;28;20480;-72
2021/04/03 14:49:21;;;;;;;7.65;1.60;;;;;;;12.12;31.97;100961.63;20984766;28;20094;-72
2021/04/03 14:59:27;;;;;;;6.20;2.05;;;;;;;11.99;32.62;100974.53;20984061;28;20045;-71
2021/04/03 15:09:28;;;;;;;5.03;1.48;;;;;;;11.84;32.49;100959.56;20982452;28;20083;-72
2021/04/03 15:19:30;;;;;;;5.85;1.88;;;;;;;11.98;32.31;100964.13;20988886;28;20053;-71
2021/04/03 15:29:31;;;;;;;5.80;1.90;;;;;;;12.07;33.02;100960.19;20997900;28;20480;-71
2021/04/03 15:39:32;;;;;;;6.82;1.60;;;;;;;12.03;31.67;100953.41;20994611;28;20450;-72
2021/04/03 15:49:33;;;;;;;6.30;1.45;;;;;;;11.99;31.55;100953.53;20994432;28;20049;-71
2021/04/03 15:59:34;;;;;;;6.18;1.65;;;;;;;11.93;31.63;100951.25;20994590;28;20078;-71
2021/04/03 16:09:36;;;;;;;4.93;1.50;;;;;;;11.93;31.04;100948.63;20973808;28;20163;-71
2021/04/03 16:19:36;;;;;;;8.25;2.28;;;;;;;11.80;32.43;100952.78;20991917;28;20660;-72
2021/04/03 16:29:37;;;;;;;5.30;1.52;;;;;;;11.46;33.82;100963.22;20991495;28;20613;-71
2021/04/03 16:39:58;;;;;;;7.47;1.85;;;;;;;11.04;34.11;100956.47;20990684;28;20084;-72
2021/04/03 16:49:59;;;;;;;7.78;1.65;;;;;;;10.90;33.98;100956.28;20990674;28;20048;-70
2021/04/03 17:00:00;;;;;;;10.52;3.17;;;;;;;10.87;33.38;100956.41;20990363;28;20681;-71
2021/04/03 17:10:01;;;;;;;10.35;2.58;;;;;;;10.81;34.13;100966.34;20988023;28;20037;-72
2021/04/03 17:20:03;;;;;;;14.27;6.82;;;;;;;10.68;34.54;100969.50;20988245;28;20079;-72
2021/04/03 17:30:12;;;;;;;16.80;5.82;;;;;;;10.60;34.65;100973.41;20986704;28;20098;-71
2021/04/03 17:40:13;;;;;;;8.35;3.40;;;;;;;10.55;34.37;100976.22;20986543;28;20048;-71
2021/04/03 17:50:14;;;;;;;7.43;2.90;;;;;;;10.32;35.13;100983.38;20991927;28;20045;-71
2021/04/03 18:00:15;;;;;;;10.65;3.83;;;;;;;10.09;35.77;100986.97;20967205;28;20492;-70
2021/04/03 18:10:16;;;;;;;10.60;2.60;;;;;;;9.98;36.27;100982.19;20986994;28;20045;-70
2021/04/03 18:20:18;;;;;;;6.70;2.00;;;;;;;9.84;37.07;100995.88;20985445;28;20048;-71
2021/04/03 18:30:20;;;;;;;8.45;3.00;;;;;;;9.54;38.17;101001.50;21050590;28;20495;-70
2021/04/03 18:40:23;;;;;;;10.50;4.18;;;;;;;9.25;38.83;101006.09;21031573;28;20052;-71
2021/04/03 18:50:30;;;;;;;6.25;2.90;;;;;;;9.11;39.51;101018.00;20982776;28;20044;-70
2021/04/03 19:00:32;;;;;;;7.07;2.75;;;;;;;8.90;40.09;101030.09;20987840;28;20056;-71
2021/04/03 19:10:34;;;;;;;9.32;3.53;;;;;;;8.62;40.91;101034.63;20995418;28;20049;-71
2021/04/03 19:20:35;;;;;;;9.90;3.70;;;;;;;8.31;42.68;101037.47;20994093;28;20103;-71
2021/04/03 19:30:36;;;;;;;9.27;3.85;;;;;;;7.64;44.64;101032.72;20978570;28;20052;-71
2021/04/03 19:40:37;;;;;;;7.80;3.22;;;;;;;7.42;45.67;101046.44;21008429;28;20048;-71
2021/04/03 19:50:38;;;;;;;11.68;3.70;;;;;;;7.08;46.80;101044.03;21027280;28;20051;-71
2021/04/03 20:00:39;;;;;;;11.68;4.47;;;;;;;6.76;49.70;101055.34;21008235;28;20372;-70
2021/04/03 20:10:40;;;;;;;9.82;3.00;;;;;;;6.54;49.71;101052.50;20991644;28;20488;-70
2021/04/03 20:20:43;;;;;;;16.13;7.82;;;;;;;6.31;49.06;101058.31;20987816;28;20446;-70
2021/04/03 20:30:44;;;;;;;10.57;4.95;;;;;;;6.13;52.67;101065.72;20991886;28;20504;-71
2021/04/03 20:40:45;;;;;;;8.93;3.60;;;;;;;5.92;53.81;101070.56;20964106;28;20095;-70
2021/04/03 20:50:47;;;;;;;7.55;3.38;;;;;;;5.64;53.86;101073.84;20970484;28;20048;-71
2021/04/03 21:00:48;;;;;;;11.85;4.20;;;;;;;5.37;52.82;101080.50;20986590;28;20048;-71
2021/04/03 21:10:49;;;;;;;9.50;3.70;;;;;;;5.32;53.83;101083.19;20959247;28;20098;-71
2021/04/03 21:20:50;;;;;;;10.70;2.90;;;;;;;5.27;54.64;101079.00;20968100;28;20124;-71
2021/04/03 21:30:51;;;;;;;9.63;2.95;;;;;;;5.05;54.10;101088.97;20962526;28;20059;-71
2021/04/03 21:40:52;;;;;;;7.28;2.53;;;;;;;4.91;56.28;101091.84;20971800;28;20063;-71
2021/04/03 21:50:54;;;;;;;8.95;2.53;;;;;;;4.88;56.09;101089.28;20971532;28;20523;-72
2021/04/03 22:00:55;;;;;;;6.22;2.60;;;;;;;4.71;57.12;101088.78;20964818;28;20048;-71
2021/04/03 22:11:00;;;;;;;8.15;3.03;;;;;;;4.50;59.43;101084.84;20960409;28;20083;-71
2021/04/03 22:21:01;;;;;;;9.65;3.60;;;;;;;4.29;58.17;101090.41;20962634;28;20467;-72
2021/04/03 22:31:03;;;;;;;9.32;3.28;;;;;;;4.06;59.98;101095.16;20992617;28;20045;-71
2021/04/03 22:41:04;;;;;;;8.48;2.95;;;;;;;3.98;60.57;101090.06;20999800;28;20049;-72
2021/04/03 22:51:05;;;;;;;10.77;3.38;;;;;;;3.83;60.22;101083.41;20999212;28;20044;-71
2021/04/03 23:01:06;;;;;;;13.95;6.32;;;;;;;3.77;62.43;101080.91;20998023;28;20094;-71
2021/04/03 23:11:07;;;;;;;11.85;4.93;;;;;;;3.66;62.48;101077.63;20996286;28;20045;-70
2021/04/03 23:21:08;;;;;;;12.00;4.25;;;;;;;3.58;63.50;101070.88;20996913;28;20053;-70
2021/04/03 23:31:09;;;;;;;12.43;3.10;;;;;;;3.46;62.05;101074.47;20995606;28;20106;-71
2021/04/03 23:41:10;;;;;;;7.47;3.33;;;;;;;3.25;64.50;101073.03;20997652;28;20094;-71
2021/04/03 23:51:11;;;;;;;9.52;3.95;;;;;;;3.23;65.02;101067.06;20994509;28;20443;-70
